createdAt,value
2017-12-19T00:01:45.854Z,30.10
2017-12-19T00:04:25.631Z,30.73
2017-12-19T00:09:28.705Z,35.23
2017-12-19T00:11:56.237Z,28.73
2017-12-19T00:14:23.771Z,29.90
2017-12-19T00:16:51.358Z,30.60
2017-12-19T00:19:18.891Z,30.10
2017-12-19T00:21:46.419Z,29.07
2017-12-19T00:24:20.663Z,29.42
2017-12-19T00:32:21.278Z,30.70
2017-12-19T00:34:48.839Z,30.50
2017-12-19T00:37:16.476Z,30.45
2017-12-19T00:39:44.940Z,28.20
2017-12-19T00:42:12.476Z,32.15
2017-12-19T00:44:40.013Z,34.97
2017-12-19T00:47:07.576Z,31.90
2017-12-19T00:49:35.128Z,30.70
2017-12-19T00:52:02.692Z,28.70
2017-12-19T00:54:30.297Z,33.50
2017-12-19T00:56:57.837Z,33.27
2017-12-19T00:59:25.383Z,28.83
2017-12-19T01:01:52.940Z,29.23
2017-12-19T01:04:20.475Z,29.62
2017-12-19T01:06:48.022Z,27.93
2017-12-19T01:09:16.507Z,27.80
2017-12-19T01:11:44.848Z,28.53
2017-12-19T01:14:12.392Z,29.45
2017-12-19T01:16:39.976Z,31.50
2017-12-19T01:19:07.764Z,29.58
2017-12-19T01:21:36.057Z,30.50
2017-12-19T01:24:03.639Z,30.37
2017-12-19T01:26:31.671Z,32.87
2017-12-19T01:28:59.215Z,32.87
2017-12-19T01:31:27.544Z,29.30
2017-12-19T01:33:55.089Z,30.60
2017-12-19T01:36:22.631Z,27.70
2017-12-19T01:38:50.267Z,31.60
2017-12-19T01:41:18.588Z,29.30
2017-12-19T01:43:46.163Z,33.40
2017-12-19T01:46:25.548Z,31.47
2017-12-19T01:52:19.603Z,30.50
2017-12-19T01:54:47.130Z,29.67
2017-12-19T01:57:17.263Z,33.00
2017-12-19T01:59:44.868Z,34.60
2017-12-19T02:02:12.604Z,32.00
2017-12-19T02:04:40.135Z,28.93
2017-12-19T02:07:07.696Z,36.63
2017-12-19T02:09:35.254Z,33.20
2017-12-19T02:12:02.795Z,30.37
2017-12-19T02:14:30.357Z,27.90
2017-12-19T02:16:57.967Z,30.83
2017-12-19T02:19:25.519Z,28.37
2017-12-19T02:21:53.099Z,29.40
2017-12-19T02:24:20.631Z,29.20
2017-12-19T02:26:48.452Z,41.13
2017-12-19T02:29:17.286Z,30.70
2017-12-19T02:31:44.826Z,30.77
2017-12-19T02:34:12.360Z,32.40
2017-12-19T02:36:40.679Z,29.77
2017-12-19T02:39:08.255Z,25.73
2017-12-19T02:41:35.784Z,29.60
2017-12-19T02:44:03.367Z,29.00
2017-12-19T02:46:30.902Z,28.10
2017-12-19T02:48:58.427Z,25.77
2017-12-19T02:51:25.988Z,27.80
2017-12-19T02:53:54.283Z,27.35
2017-12-19T02:56:21.874Z,30.13
2017-12-19T02:58:49.438Z,29.40
2017-12-19T03:01:16.969Z,34.10
2017-12-19T03:03:44.507Z,27.13
2017-12-19T03:06:12.140Z,25.83
2017-12-19T03:08:39.675Z,25.20
2017-12-19T03:11:07.200Z,27.67
2017-12-19T03:13:34.763Z,26.83
2017-12-19T03:16:02.292Z,27.70
2017-12-19T03:18:29.830Z,25.67
2017-12-19T03:20:57.466Z,25.20
2017-12-19T03:23:25.003Z,24.80
2017-12-19T03:25:52.527Z,28.15
2017-12-19T03:28:20.628Z,27.00
2017-12-19T03:30:48.312Z,22.60
2017-12-19T03:33:16.423Z,23.65
2017-12-19T03:35:44.751Z,25.07
2017-12-19T03:38:12.279Z,22.33
2017-12-19T03:40:39.824Z,20.13
2017-12-19T03:43:08.148Z,28.50
2017-12-19T03:45:35.703Z,31.73
2017-12-19T03:48:03.235Z,27.27
2017-12-19T03:50:30.844Z,25.80
2017-12-19T03:52:58.484Z,28.83
2017-12-19T03:55:26.022Z,23.80
2017-12-19T03:57:53.603Z,22.27
2017-12-19T04:00:21.135Z,26.17
2017-12-19T04:02:48.670Z,28.53
2017-12-19T04:05:16.520Z,28.83
2017-12-19T04:07:44.071Z,28.57
2017-12-19T04:10:11.604Z,29.03
2017-12-19T04:12:39.186Z,30.73
2017-12-19T04:15:06.720Z,25.60
2017-12-19T04:17:34.272Z,26.03
2017-12-19T04:20:01.860Z,27.40
2017-12-19T04:22:29.399Z,29.40
2017-12-19T04:24:56.931Z,25.83
2017-12-19T04:27:24.494Z,26.55
2017-12-19T04:29:52.464Z,28.17
2017-12-19T04:32:20.000Z,27.98
2017-12-19T04:34:47.603Z,30.90
2017-12-19T04:37:16.407Z,27.83
2017-12-19T04:39:43.973Z,32.30
2017-12-19T04:42:11.897Z,34.97
2017-12-19T04:44:39.499Z,31.77
2017-12-19T04:47:08.543Z,28.87
2017-12-19T04:49:36.159Z,34.17
2017-12-19T04:52:03.772Z,29.77
2017-12-19T04:54:31.306Z,33.83
2017-12-19T04:56:59.667Z,31.80
2017-12-19T04:59:27.198Z,31.60
2017-12-19T05:01:54.844Z,30.73
2017-12-19T05:04:22.404Z,32.73
2017-12-19T05:06:50.046Z,30.63
2017-12-19T05:09:17.757Z,31.05
2017-12-19T05:11:45.461Z,36.73
2017-12-19T05:14:15.607Z,33.03
2017-12-19T05:16:43.136Z,31.77
2017-12-19T05:19:10.740Z,28.43
2017-12-19T05:21:38.274Z,28.50
2017-12-19T05:24:05.799Z,28.77
2017-12-19T05:26:33.503Z,31.77
2017-12-19T05:29:01.806Z,28.00
2017-12-19T05:31:29.791Z,31.75
2017-12-19T05:33:57.347Z,35.80
2017-12-19T05:36:24.883Z,39.67
2017-12-19T05:38:52.411Z,34.03
2017-12-19T05:41:19.993Z,37.10
2017-12-19T05:43:47.695Z,33.73
2017-12-19T05:46:16.779Z,36.50
2017-12-19T05:48:44.347Z,36.73
2017-12-19T05:51:13.571Z,42.27
2017-12-19T05:53:41.104Z,44.57
2017-12-19T05:56:09.481Z,41.10
2017-12-19T05:58:37.828Z,35.60
2017-12-19T06:01:05.358Z,33.07
2017-12-19T06:03:33.372Z,34.72
2017-12-19T06:06:01.693Z,33.67
2017-12-19T06:08:29.220Z,39.37
2017-12-19T06:10:56.786Z,41.67
2017-12-19T06:13:25.083Z,35.67
2017-12-19T06:15:52.611Z,42.37
2017-12-19T06:18:21.512Z,40.03
2017-12-19T06:20:49.048Z,32.73
2017-12-19T06:23:16.592Z,36.33
2017-12-19T06:25:44.179Z,32.67
2017-12-19T06:28:12.527Z,33.57
2017-12-19T06:30:40.080Z,34.60
2017-12-19T06:33:07.643Z,33.57
2017-12-19T06:35:35.957Z,32.23
2017-12-19T06:38:03.484Z,35.65
2017-12-19T06:40:31.098Z,34.53
2017-12-19T06:42:58.691Z,35.80
2017-12-19T06:45:26.223Z,34.03
2017-12-19T06:47:53.808Z,31.57
2017-12-19T06:50:21.340Z,32.67
2017-12-19T06:52:49.020Z,32.20
2017-12-19T06:55:16.575Z,33.85
2017-12-19T06:57:44.099Z,32.73
2017-12-19T07:00:11.631Z,32.03
2017-12-19T07:02:40.280Z,25.77
2017-12-19T07:05:07.813Z,30.07
2017-12-19T07:07:35.352Z,37.03
2017-12-19T07:10:02.936Z,36.63
2017-12-19T07:12:30.500Z,43.58
2017-12-19T07:14:58.043Z,58.60
2017-12-19T07:17:25.618Z,59.30
2017-12-19T07:19:53.162Z,51.90
2017-12-19T07:22:20.691Z,58.93
2017-12-19T07:24:49.016Z,49.30
2017-12-19T07:27:16.546Z,60.33
2017-12-19T07:29:44.867Z,59.33
2017-12-19T07:32:12.472Z,39.30
2017-12-19T07:34:41.173Z,42.47
2017-12-19T07:37:08.708Z,40.63
2017-12-19T07:39:36.264Z,35.30
2017-12-19T07:42:04.708Z,37.17
2017-12-19T07:44:32.240Z,36.00
2017-12-19T07:46:59.812Z,37.90
2017-12-19T07:49:27.361Z,31.50
2017-12-19T07:51:54.895Z,33.57
2017-12-19T07:54:22.496Z,36.33
2017-12-19T07:56:50.035Z,36.60
2017-12-19T07:59:17.720Z,45.63
2017-12-19T08:01:45.279Z,38.50
2017-12-19T08:04:13.873Z,44.13
2017-12-19T08:06:41.403Z,37.22
2017-12-19T08:09:08.965Z,42.10
2017-12-19T08:11:36.525Z,49.20
2017-12-19T08:14:04.490Z,49.17
2017-12-19T08:16:32.149Z,33.20
2017-12-19T08:18:59.680Z,37.40
2017-12-19T08:21:27.975Z,36.47
2017-12-19T08:23:55.587Z,37.03
2017-12-19T08:26:23.132Z,42.13
2017-12-19T08:28:50.706Z,37.00
2017-12-19T08:31:18.556Z,31.60
2017-12-19T08:33:47.278Z,37.50
2017-12-19T08:36:16.793Z,35.22
2017-12-19T08:38:44.375Z,33.80
2017-12-19T08:41:12.117Z,33.40
2017-12-19T08:43:39.654Z,35.60
2017-12-19T08:46:08.110Z,33.60
2017-12-19T08:48:35.635Z,36.00
2017-12-19T08:51:03.372Z,33.43
2017-12-19T08:53:30.957Z,34.80
2017-12-19T08:55:58.491Z,34.88
2017-12-19T08:58:26.789Z,30.10
2017-12-19T09:00:54.763Z,31.03
2017-12-19T09:03:23.319Z,33.95
2017-12-19T09:05:50.877Z,34.27
2017-12-19T09:08:18.444Z,36.23
2017-12-19T09:10:45.991Z,38.37
2017-12-19T09:13:25.767Z,38.67
2017-12-19T09:18:37.908Z,40.90
2017-12-19T09:21:05.518Z,41.90
2017-12-19T09:23:33.056Z,35.95
2017-12-19T09:26:00.643Z,42.23
2017-12-19T09:28:28.176Z,35.97
2017-12-19T09:30:55.711Z,35.03
2017-12-19T09:33:23.283Z,38.53
2017-12-19T09:35:50.916Z,41.37
2017-12-19T09:38:18.941Z,41.92
2017-12-19T09:40:46.533Z,37.47
2017-12-19T09:43:16.461Z,34.55
2017-12-19T09:45:43.996Z,40.67
2017-12-19T09:48:11.557Z,41.60
2017-12-19T09:50:39.346Z,36.93
2017-12-19T09:53:06.886Z,40.77
2017-12-19T09:55:34.461Z,37.42
2017-12-19T09:58:02.000Z,42.97
2017-12-19T10:00:29.773Z,38.05
2017-12-19T10:02:57.355Z,36.77
2017-12-19T10:05:24.928Z,40.28
2017-12-19T10:07:52.483Z,40.95
2017-12-19T10:10:20.044Z,47.25
2017-12-19T10:12:47.571Z,38.30
2017-12-19T10:15:16.504Z,41.42
2017-12-19T10:17:44.107Z,39.80
2017-12-19T10:20:11.646Z,37.07
2017-12-19T10:22:39.223Z,40.03
2017-12-19T10:25:07.228Z,40.23
2017-12-19T10:27:34.779Z,42.53
2017-12-19T10:30:02.348Z,45.40
2017-12-19T10:32:29.919Z,38.58
2017-12-19T10:34:57.451Z,36.43
2017-12-19T10:37:25.035Z,34.37
2017-12-19T10:39:52.956Z,53.20
2017-12-19T10:42:20.508Z,36.30
2017-12-19T10:44:48.046Z,37.40
2017-12-19T10:47:16.595Z,43.22
2017-12-19T10:49:44.139Z,34.50
2017-12-19T10:52:11.674Z,40.70
2017-12-19T10:54:39.243Z,45.97
2017-12-19T10:57:06.790Z,38.57
2017-12-19T10:59:34.333Z,36.20
2017-12-19T11:02:01.898Z,36.80
2017-12-19T11:04:29.427Z,38.73
2017-12-19T11:06:57.778Z,40.80
2017-12-19T11:09:25.362Z,31.87
2017-12-19T11:11:53.668Z,33.70
2017-12-19T11:14:21.203Z,32.67
2017-12-19T11:16:48.763Z,45.47
2017-12-19T11:19:16.564Z,34.88
2017-12-19T11:21:44.092Z,38.73
2017-12-19T11:24:12.456Z,38.10
2017-12-19T11:26:40.183Z,36.97
2017-12-19T11:29:07.727Z,36.77
2017-12-19T11:31:35.324Z,42.83
2017-12-19T11:34:02.864Z,37.83
2017-12-19T11:36:30.429Z,32.17
2017-12-19T11:38:57.985Z,40.50
2017-12-19T11:41:26.299Z,35.60
2017-12-19T11:43:53.878Z,35.60
2017-12-19T11:46:22.186Z,36.66
2017-12-19T11:48:49.724Z,47.13
2017-12-19T11:51:17.747Z,43.93
2017-12-19T11:53:45.348Z,47.20
2017-12-19T11:56:14.593Z,106.78
2017-12-19T11:58:42.165Z,42.90
2017-12-19T12:01:09.744Z,54.97
2017-12-19T12:03:37.283Z,47.63
2017-12-19T12:06:04.818Z,39.10
2017-12-19T12:08:32.380Z,37.63
2017-12-19T12:11:00.212Z,32.73
2017-12-19T12:13:27.747Z,32.77
2017-12-19T12:15:55.339Z,32.90
2017-12-19T12:18:22.876Z,33.10
2017-12-19T12:20:50.420Z,36.50
2017-12-19T12:23:17.984Z,39.50
2017-12-19T12:25:45.581Z,36.10
2017-12-19T12:28:23.673Z,40.10
2017-12-19T12:32:17.791Z,41.40
2017-12-19T12:34:46.138Z,37.70
2017-12-19T12:37:16.636Z,38.25
2017-12-19T12:39:44.940Z,45.60
2017-12-19T12:42:14.552Z,43.10
2017-12-19T12:44:42.181Z,41.10
2017-12-19T12:47:09.706Z,42.03
2017-12-19T12:49:37.292Z,39.23
2017-12-19T12:52:04.852Z,39.30
2017-12-19T12:54:33.295Z,37.30
2017-12-19T12:57:00.900Z,45.40
2017-12-19T12:59:28.447Z,45.45
2017-12-19T13:01:56.014Z,41.43
2017-12-19T13:04:23.838Z,42.80
2017-12-19T13:06:51.376Z,40.63
2017-12-19T13:09:18.932Z,38.30
2017-12-19T13:11:46.647Z,38.50
2017-12-19T13:14:16.398Z,43.10
2017-12-19T13:16:43.931Z,42.20
2017-12-19T13:19:11.581Z,50.63
2017-12-19T13:21:39.880Z,43.20
2017-12-19T13:24:07.421Z,43.70
2017-12-19T13:26:35.874Z,47.53
2017-12-19T13:29:03.427Z,45.65
2017-12-19T13:31:31.015Z,44.28
2017-12-19T13:33:58.585Z,46.63
2017-12-19T13:36:26.913Z,47.13
2017-12-19T13:38:54.475Z,45.38
2017-12-19T13:41:22.133Z,47.90
2017-12-19T13:43:49.993Z,46.27
2017-12-19T13:46:17.841Z,41.25
2017-12-19T13:48:45.411Z,42.00
2017-12-19T13:51:25.259Z,42.28
2017-12-19T13:57:51.688Z,40.77
2017-12-19T14:00:19.291Z,42.43
2017-12-19T14:02:46.827Z,49.80
2017-12-19T14:05:25.307Z,52.05
2017-12-19T14:13:42.932Z,48.90
2017-12-19T14:16:10.481Z,53.80
2017-12-19T14:18:38.020Z,53.47
2017-12-19T14:21:05.629Z,57.30
2017-12-19T14:23:33.163Z,56.45
2017-12-19T14:26:00.698Z,59.63
2017-12-19T14:28:28.313Z,64.77
2017-12-19T14:30:56.613Z,64.87
2017-12-19T14:33:24.150Z,68.80
2017-12-19T14:35:52.801Z,66.87
2017-12-19T14:38:21.143Z,57.97
2017-12-19T14:40:48.689Z,52.47
2017-12-19T14:43:16.577Z,46.67
2017-12-19T14:45:44.648Z,50.57
2017-12-19T14:48:12.204Z,55.07
2017-12-19T14:50:40.746Z,50.83
2017-12-19T14:53:09.136Z,48.13
2017-12-19T14:55:37.443Z,53.73
2017-12-19T14:58:05.052Z,61.53
2017-12-19T15:00:32.631Z,61.28
2017-12-19T15:03:00.951Z,58.83
2017-12-19T15:05:28.527Z,63.60
2017-12-19T15:07:56.084Z,55.53
2017-12-19T15:10:23.632Z,56.20
2017-12-19T15:12:51.257Z,56.83
2017-12-19T15:15:18.800Z,58.30
2017-12-19T15:17:46.351Z,61.20
2017-12-19T15:20:26.824Z,73.85
2017-12-19T15:25:28.156Z,69.77
2017-12-19T15:27:55.973Z,67.90
2017-12-19T15:30:23.510Z,71.72
2017-12-19T15:32:51.854Z,61.00
2017-12-19T15:35:19.406Z,66.77
2017-12-19T15:37:46.943Z,65.03
2017-12-19T15:40:26.804Z,62.47
2017-12-19T15:45:53.021Z,57.77
2017-12-19T15:48:20.609Z,69.10
2017-12-19T15:50:48.995Z,67.23
2017-12-19T15:53:16.584Z,67.50
2017-12-19T15:55:44.121Z,66.63
2017-12-19T15:58:11.647Z,65.07
2017-12-19T16:00:39.321Z,67.30
2017-12-19T16:03:06.895Z,71.63
2017-12-19T16:05:34.455Z,65.55
2017-12-19T16:08:02.019Z,73.60
2017-12-19T16:10:29.590Z,66.57
2017-12-19T16:12:57.119Z,75.47
2017-12-19T16:15:24.687Z,74.57
2017-12-19T16:17:52.223Z,69.00
2017-12-19T16:20:19.796Z,137.12
2017-12-19T16:22:47.384Z,164.20
2017-12-19T16:25:16.522Z,80.57
2017-12-19T16:27:44.090Z,71.93
2017-12-19T16:30:11.660Z,68.53
2017-12-19T16:32:39.210Z,71.93
2017-12-19T16:35:06.744Z,76.10
2017-12-19T16:37:34.302Z,71.40
2017-12-19T16:40:01.913Z,75.63
2017-12-19T16:42:29.444Z,82.80
2017-12-19T16:44:57.097Z,81.20
2017-12-19T16:47:25.478Z,84.53
2017-12-19T16:49:53.051Z,87.23
2017-12-19T16:52:20.632Z,82.53
2017-12-19T16:54:48.939Z,84.23
2017-12-19T16:57:17.243Z,87.50
2017-12-19T16:59:44.871Z,89.07
2017-12-19T17:02:14.102Z,79.60
2017-12-19T17:04:41.911Z,84.40
2017-12-19T17:07:09.517Z,79.85
2017-12-19T17:09:37.089Z,77.43
2017-12-19T17:12:04.672Z,77.43
2017-12-19T17:14:32.312Z,79.73
2017-12-19T17:17:00.620Z,87.47
2017-12-19T17:19:28.155Z,76.83
2017-12-19T17:21:55.856Z,88.57
2017-12-19T17:24:23.392Z,83.72
2017-12-19T17:26:50.970Z,80.60
2017-12-19T17:29:18.543Z,80.97
2017-12-19T17:31:46.897Z,79.43
2017-12-19T17:34:16.269Z,76.05
2017-12-19T17:36:43.880Z,78.33
2017-12-19T17:39:12.183Z,83.40
2017-12-19T17:41:39.748Z,79.07
2017-12-19T17:44:08.328Z,82.17
2017-12-19T17:46:35.912Z,76.87
2017-12-19T17:49:03.991Z,77.67
2017-12-19T17:51:31.649Z,85.35
2017-12-19T17:53:59.214Z,67.47
2017-12-19T17:56:26.789Z,71.23
2017-12-19T17:58:54.397Z,71.67
2017-12-19T18:01:21.935Z,74.03
2017-12-19T18:03:50.337Z,68.60
2017-12-19T18:06:17.903Z,64.67
2017-12-19T18:08:45.488Z,71.55
2017-12-19T18:11:15.384Z,66.97
2017-12-19T18:13:43.000Z,73.27
2017-12-19T18:16:10.543Z,76.75
2017-12-19T18:18:38.166Z,74.37
2017-12-19T18:21:05.761Z,74.40
2017-12-19T18:23:33.370Z,95.82
2017-12-19T18:26:00.944Z,85.83
2017-12-19T18:28:28.921Z,80.53
2017-12-19T18:30:57.727Z,87.35
2017-12-19T18:33:26.047Z,83.23
2017-12-19T18:35:53.734Z,79.03
2017-12-19T18:38:21.267Z,72.30
2017-12-19T18:40:48.816Z,71.60
2017-12-19T18:43:16.543Z,72.12
2017-12-19T18:45:44.116Z,74.87
2017-12-19T18:48:12.534Z,75.63
2017-12-19T18:50:40.312Z,63.07
2017-12-19T18:53:07.897Z,74.63
2017-12-19T18:55:35.499Z,56.60
2017-12-19T18:58:04.016Z,60.47
2017-12-19T19:00:31.666Z,62.80
2017-12-19T19:02:59.329Z,66.37
2017-12-19T19:05:26.999Z,59.47
2017-12-19T19:07:54.588Z,63.60
2017-12-19T19:10:22.187Z,64.90
2017-12-19T19:12:50.649Z,76.17
2017-12-19T19:15:18.240Z,74.20
2017-12-19T19:17:46.215Z,76.90
2017-12-19T19:20:25.441Z,82.65
2017-12-19T19:27:31.808Z,84.67
2017-12-19T19:29:59.422Z,90.82
2017-12-19T19:32:27.762Z,81.80
2017-12-19T19:34:56.152Z,82.73
2017-12-19T19:37:23.764Z,71.07
2017-12-19T19:39:52.150Z,81.63
2017-12-19T19:42:19.864Z,89.30
2017-12-19T19:44:47.447Z,91.57
2017-12-19T19:47:17.292Z,82.88
2017-12-19T19:49:44.915Z,84.60
2017-12-19T19:52:13.089Z,79.10
2017-12-19T19:54:40.683Z,83.77
2017-12-19T19:57:08.295Z,77.10
2017-12-19T19:59:36.001Z,83.77
2017-12-19T20:02:03.751Z,82.87
2017-12-19T20:04:31.365Z,78.53
2017-12-19T20:06:59.012Z,86.17
2017-12-19T20:09:26.572Z,83.70
2017-12-19T20:11:55.218Z,84.20
2017-12-19T20:14:22.908Z,81.47
2017-12-19T20:16:51.343Z,88.85
2017-12-19T20:19:18.983Z,89.63
2017-12-19T20:21:46.571Z,90.05
2017-12-19T20:24:16.582Z,92.20
2017-12-19T20:26:44.219Z,85.33
2017-12-19T20:29:11.779Z,84.57
2017-12-19T20:31:39.358Z,89.70
2017-12-19T20:34:07.069Z,94.77
2017-12-19T20:36:35.491Z,74.23
2017-12-19T20:39:03.067Z,89.07
2017-12-19T20:41:30.724Z,86.63
2017-12-19T20:43:58.464Z,97.03
2017-12-19T20:46:26.053Z,115.23
2017-12-19T20:48:53.723Z,100.10
2017-12-19T20:51:21.420Z,111.10
2017-12-19T20:53:49.436Z,107.40
2017-12-19T20:56:17.154Z,105.43
2017-12-19T20:58:44.754Z,101.17
2017-12-19T21:01:12.348Z,88.70
2017-12-19T21:03:39.976Z,106.27
2017-12-19T21:06:07.563Z,107.68
2017-12-19T21:08:35.159Z,99.03
2017-12-19T21:11:03.516Z,107.07
2017-12-19T21:13:31.106Z,98.85
2017-12-19T21:15:58.647Z,85.00
2017-12-19T21:18:26.968Z,81.23
2017-12-19T21:20:54.567Z,82.15
2017-12-19T21:23:22.110Z,81.07
2017-12-19T21:25:49.714Z,82.03
2017-12-19T21:28:18.089Z,72.70
2017-12-19T21:30:46.386Z,74.47
2017-12-19T21:33:15.599Z,71.87
2017-12-19T21:35:43.266Z,81.30
2017-12-19T21:38:10.871Z,84.90
2017-12-19T21:40:38.542Z,83.10
2017-12-19T21:43:06.147Z,82.53
2017-12-19T21:45:33.767Z,80.53
2017-12-19T21:48:02.149Z,75.93
2017-12-19T21:50:29.737Z,79.93
2017-12-19T21:52:57.327Z,79.00
2017-12-19T21:55:25.759Z,84.30
2017-12-19T21:57:53.405Z,81.00
2017-12-19T22:00:21.765Z,84.97
2017-12-19T22:02:49.339Z,80.67
2017-12-19T22:05:17.691Z,88.40
2017-12-19T22:07:45.338Z,87.90
2017-12-19T22:10:14.293Z,93.07
2017-12-19T22:12:41.914Z,87.53
2017-12-19T22:15:10.216Z,91.20
2017-12-19T22:17:37.829Z,96.77
2017-12-19T22:20:05.408Z,90.20
2017-12-19T22:22:33.779Z,96.90
2017-12-19T22:25:02.163Z,89.93
2017-12-19T22:27:29.757Z,94.78
2017-12-19T22:29:57.299Z,106.97
2017-12-19T22:32:24.856Z,96.10
2017-12-19T22:34:52.449Z,82.93
2017-12-19T22:37:20.039Z,96.65
2017-12-19T22:39:47.627Z,89.80
2017-12-19T22:42:17.312Z,91.47
2017-12-19T22:44:44.927Z,82.37
2017-12-19T22:47:12.532Z,84.70
2017-12-19T22:49:40.128Z,93.67
2017-12-19T22:52:08.492Z,91.73
2017-12-19T22:54:36.149Z,94.93
2017-12-19T22:57:04.110Z,104.23
2017-12-19T22:59:31.696Z,92.13
2017-12-19T23:01:59.348Z,94.57
2017-12-19T23:04:26.912Z,90.00
2017-12-19T23:06:55.335Z,92.10
2017-12-19T23:09:22.895Z,89.77
2017-12-19T23:11:50.760Z,82.00
2017-12-19T23:14:18.304Z,90.27
2017-12-19T23:16:45.864Z,71.70
2017-12-19T23:19:14.490Z,69.00
2017-12-19T23:21:42.023Z,74.83
2017-12-19T23:24:09.715Z,68.77
2017-12-19T23:26:37.290Z,64.37
2017-12-19T23:29:04.875Z,68.70
2017-12-19T23:31:32.485Z,70.40
2017-12-19T23:34:00.073Z,65.10
2017-12-19T23:36:27.616Z,62.08
2017-12-19T23:38:55.959Z,62.97
2017-12-19T23:41:23.500Z,67.93
2017-12-19T23:43:51.087Z,66.30
2017-12-19T23:46:18.721Z,64.47
2017-12-19T23:48:46.251Z,55.07
2017-12-19T23:51:25.855Z,63.22
